Kakisa, Canada
Current Conditions -  °F | °C
As of 4:00 PM on Friday 28 Nov 2014 (Local Time) from CYHY Reporting Station
Few Clouds Few Clouds  
Wind Chill: -29°   Ceiling: Unl
Heat Index: -13°   Visibility: 15mi
Dew Point: -18°   Wind: 7mph
Humidity: 77%   Direction: 190°S
Pressure: 30.08"   Gusts: NA
Location:  60.93°N, 117.42°W
Report Text: CYHY 282300Z 19006KT 15SM FEW030 FEW230 M25/M28 A3008 RMK ST1CS1 SLP213
Loading
Personal Weather Stations






























Interactive Weather Map New forecast layout! Learn more

10-Day Weather Forecast

Advertisements
Track Severe Weather on mobile